Time;durP1;ratioP1;P1;durP2;ratioP2;P2;SDS_P1;SDS_P2;PMS_P1;PMS_P2;Temp;Humidity;BMP_temperature;BMP_pressure;BME280_temperature;BME280_humidity;BME280_pressure;Samples;Min_cycle;Max_cycle;Signal;HPM_P1;HPM_P2
2022/02/28 00:00:16;;;;;;;77.87;54.38;;;22.90;85.50;;;;;;1822290;78;21147;-86
2022/02/28 00:02:47;;;;;;;68.70;49.85;;;22.80;86.20;;;;;;1823924;77;21150;-87
2022/02/28 00:05:19;;;;;;;75.32;51.95;;;22.80;85.70;;;;;;1820297;77;21902;-86
2022/02/28 00:07:50;;;;;;;65.03;48.98;;;22.80;86.20;;;;;;1823605;77;21127;-87
2022/02/28 00:10:22;;;;;;;82.65;52.75;;;22.70;83.00;;;;;;1833574;77;21150;-87
2022/02/28 00:12:53;;;;;;;75.65;48.83;;;22.80;84.40;;;;;;1820331;78;21198;-86
2022/02/28 00:15:24;;;;;;;66.42;47.45;;;22.90;84.40;;;;;;1817517;77;21143;-86
2022/02/28 00:17:54;;;;;;;63.48;46.42;;;22.90;84.50;;;;;;1820299;77;21152;-87
2022/02/28 00:20:28;;;;;;;67.50;47.62;;;23.00;83.50;;;;;;1823441;77;21166;-85
2022/02/28 00:22:58;;;;;;;58.52;43.10;;;23.00;83.50;;;;;;1823541;77;21201;-86
2022/02/28 00:25:29;;;;;;;60.38;42.67;;;23.10;82.60;;;;;;1820900;78;21111;-86
2022/02/28 00:28:00;;;;;;;61.95;42.55;;;23.10;82.30;;;;;;1820594;78;21190;-86
2022/02/28 00:30:31;;;;;;;57.08;41.40;;;23.20;81.30;;;;;;1820552;77;21775;-86
2022/02/28 00:33:06;;;;;;;56.83;42.03;;;23.20;81.30;;;;;;1819648;77;21265;-86
2022/02/28 00:35:38;;;;;;;56.70;43.17;;;23.30;81.10;;;;;;1818300;77;21630;-87
2022/02/28 00:38:10;;;;;;;56.85;41.25;;;23.30;80.80;;;;;;1820580;78;21711;-87
2022/02/28 00:40:41;;;;;;;58.08;41.63;;;23.30;81.00;;;;;;1823100;77;21190;-87
2022/02/28 00:43:12;;;;;;;53.42;39.80;;;23.30;82.30;;;;;;1821682;77;21144;-85
2022/02/28 00:45:43;;;;;;;57.53;40.28;;;23.30;82.00;;;;;;1819785;77;21163;-87
2022/02/28 00:48:14;;;;;;;54.05;40.95;;;23.30;81.70;;;;;;1825079;78;21135;-87
2022/02/28 00:50:46;;;;;;;54.35;42.17;;;23.40;82.50;;;;;;1815689;77;21156;-86
2022/02/28 00:53:17;;;;;;;57.10;43.05;;;23.40;82.30;;;;;;1832566;78;21216;-87
2022/02/28 00:55:48;;;;;;;55.65;41.23;;;23.30;81.00;;;;;;1824748;77;21201;-87
2022/02/28 00:58:19;;;;;;;62.45;43.40;;;23.40;80.60;;;;;;1821150;77;21154;-86
2022/02/28 01:00:51;;;;;;;60.70;44.13;;;23.40;81.20;;;;;;1831315;77;21208;-87
2022/02/28 01:03:22;;;;;;;57.15;43.48;;;23.40;81.30;;;;;;1820879;77;21153;-87
2022/02/28 01:05:53;;;;;;;58.52;44.48;;;23.40;82.20;;;;;;1819823;77;21547;-87
2022/02/28 01:08:24;;;;;;;58.23;40.85;;;23.40;82.90;;;;;;1819190;78;21162;-86
2022/02/28 01:10:57;;;;;;;59.83;43.92;;;23.40;82.10;;;;;;1837820;78;21182;-86
2022/02/28 01:13:27;;;;;;;59.03;42.43;;;23.50;82.50;;;;;;1829375;78;21095;-87
2022/02/28 01:15:58;;;;;;;61.77;42.78;;;23.50;81.10;;;;;;1828536;77;21591;-87
2022/02/28 01:18:29;;;;;;;55.23;42.03;;;23.50;82.30;;;;;;1820894;77;21229;-88
2022/02/28 01:20:59;;;;;;;60.35;42.88;;;23.50;82.20;;;;;;1823986;77;21190;-87
2022/02/28 01:23:30;;;;;;;61.70;46.30;;;23.50;82.60;;;;;;1819867;78;21137;-87
2022/02/28 01:26:02;;;;;;;60.88;43.10;;;23.50;83.90;;;;;;1822812;77;21096;-86
2022/02/28 01:28:33;;;;;;;57.05;43.55;;;23.50;84.40;;;;;;1818045;77;21102;-86
2022/02/28 01:31:04;;;;;;;57.80;42.58;;;23.50;84.60;;;;;;1826813;77;21649;-86
2022/02/28 01:33:35;;;;;;;61.70;45.60;;;23.50;84.70;;;;;;1829186;77;21179;-85
2022/02/28 01:36:06;;;;;;;56.02;43.13;;;23.40;84.80;;;;;;1813026;78;21094;-86
2022/02/28 01:38:37;;;;;;;58.80;43.45;;;23.40;84.80;;;;;;1817799;77;21143;-86
2022/02/28 01:41:08;;;;;;;57.13;42.67;;;23.40;84.70;;;;;;1833173;77;21178;-86
2022/02/28 01:43:39;;;;;;;57.08;41.58;;;23.40;84.60;;;;;;1816584;78;21122;-85
2022/02/28 01:46:09;;;;;;;53.85;39.88;;;23.50;83.80;;;;;;1821412;77;21163;-85
2022/02/28 01:48:40;;;;;;;55.15;38.95;;;23.50;84.00;;;;;;1811351;78;21159;-85
2022/02/28 01:51:11;;;;;;;49.55;39.60;;;23.60;83.70;;;;;;1818395;77;21257;-85
2022/02/28 01:53:42;;;;;;;55.70;41.85;;;23.60;82.70;;;;;;1820165;77;21143;-86
2022/02/28 01:56:13;;;;;;;46.42;37.58;;;23.70;83.60;;;;;;1808150;77;21132;-85
2022/02/28 01:58:44;;;;;;;51.42;39.30;;;23.70;82.00;;;;;;1818816;77;21171;-85
2022/02/28 02:01:15;;;;;;;51.08;37.73;;;23.80;81.80;;;;;;1813945;77;21143;-86
2022/02/28 02:03:46;;;;;;;50.20;39.25;;;23.80;82.20;;;;;;1817590;77;21154;-86
2022/02/28 02:06:18;;;;;;;57.73;42.62;;;23.90;81.00;;;;;;1811137;77;21503;-87
2022/02/28 02:08:49;;;;;;;50.65;38.48;;;24.00;82.60;;;;;;1844775;77;21187;-86
2022/02/28 02:11:20;;;;;;;47.55;37.63;;;24.00;81.60;;;;;;1822163;77;21123;-87
2022/02/28 02:13:51;;;;;;;42.73;33.75;;;24.10;81.60;;;;;;1821253;78;21147;-85
2022/02/28 02:16:22;;;;;;;47.35;36.00;;;24.20;80.40;;;;;;1828215;77;21256;-86
2022/02/28 02:18:53;;;;;;;48.75;36.42;;;24.20;80.10;;;;;;1838506;77;21079;-86
2022/02/28 02:21:24;;;;;;;47.85;36.23;;;24.30;80.10;;;;;;1824760;77;21201;-85
2022/02/28 02:23:55;;;;;;;44.83;32.98;;;24.40;80.10;;;;;;1815530;78;21574;-86
2022/02/28 02:26:28;;;;;;;41.23;33.48;;;24.40;79.80;;;;;;1819776;77;21524;-87
2022/02/28 02:29:01;;;;;;;44.65;34.98;;;24.40;79.30;;;;;;1826873;77;21141;-86
2022/02/28 02:31:31;;;;;;;47.98;36.30;;;24.50;79.20;;;;;;1823928;77;21686;-87
2022/02/28 02:34:02;;;;;;;45.38;36.00;;;24.60;79.50;;;;;;1821169;77;21156;-87
2022/02/28 02:36:33;;;;;;;49.55;37.42;;;24.60;79.10;;;;;;1822092;77;21155;-88
2022/02/28 02:39:04;;;;;;;45.67;36.48;;;24.60;79.00;;;;;;1824737;77;21602;-87
2022/02/28 02:41:34;;;;;;;48.28;35.30;;;24.70;79.30;;;;;;1825468;77;21088;-87
2022/02/28 02:44:05;;;;;;;41.37;34.85;;;24.70;80.10;;;;;;1825098;78;21589;-86
2022/02/28 02:46:39;;;;;;;46.15;34.80;;;24.80;79.70;;;;;;1819321;77;21687;-86
2022/02/28 02:49:25;;;;;;;40.55;33.50;;;24.80;79.40;;;;;;1825442;77;21143;-85
2022/02/28 02:51:56;;;;;;;42.00;32.98;;;24.90;78.70;;;;;;1825729;77;21251;-85
2022/02/28 02:54:27;;;;;;;42.35;33.55;;;25.00;79.30;;;;;;1815004;77;21104;-86
2022/02/28 02:56:57;;;;;;;42.08;33.05;;;25.10;78.60;;;;;;1828229;77;21148;-86
2022/02/28 02:59:28;;;;;;;41.10;32.70;;;25.10;78.50;;;;;;1818150;77;21185;-85
2022/02/28 03:01:59;;;;;;;40.45;32.67;;;25.20;78.30;;;;;;1819053;78;21160;-86
2022/02/28 03:04:30;;;;;;;44.63;31.77;;;25.30;78.50;;;;;;1819475;77;21192;-86
2022/02/28 03:07:02;;;;;;;38.90;30.62;;;25.40;78.30;;;;;;1829370;77;21171;-86
2022/02/28 03:09:32;;;;;;;39.18;31.77;;;25.50;78.30;;;;;;1823391;77;21112;-84
2022/02/28 03:12:03;;;;;;;41.10;31.07;;;25.60;77.80;;;;;;1826830;77;21556;-85
2022/02/28 03:14:34;;;;;;;40.10;29.80;;;25.70;77.20;;;;;;1827082;77;21119;-86
2022/02/28 03:17:05;;;;;;;40.33;30.25;;;25.80;76.70;;;;;;1823296;77;21096;-87
2022/02/28 03:19:36;;;;;;;37.30;29.32;;;25.90;76.60;;;;;;1825681;77;21173;-86
2022/02/28 03:22:14;;;;;;;40.85;31.30;;;25.90;76.50;;;;;;1825151;77;21100;-85
2022/02/28 03:24:47;;;;;;;38.63;29.87;;;26.00;76.60;;;;;;1823063;77;21131;-85
2022/02/28 03:27:17;;;;;;;39.27;30.82;;;26.20;76.10;;;;;;1818390;77;21151;-86
2022/02/28 03:29:47;;;;;;;39.88;30.35;;;26.30;75.60;;;;;;1820424;77;21949;-86
2022/02/28 03:32:18;;;;;;;37.20;30.00;;;26.40;75.40;;;;;;1822837;78;21064;-85
2022/02/28 03:34:49;;;;;;;36.10;28.35;;;26.50;75.30;;;;;;1818589;78;21640;-87
2022/02/28 03:37:22;;;;;;;39.10;29.55;;;26.60;74.40;;;;;;1839884;77;21686;-86
2022/02/28 03:39:55;;;;;;;36.48;29.42;;;26.70;73.60;;;;;;1832759;77;21170;-86
2022/02/28 03:42:26;;;;;;;37.35;30.30;;;26.80;73.50;;;;;;1819948;77;21068;-86
2022/02/28 03:44:57;;;;;;;39.95;30.10;;;26.90;73.10;;;;;;1835253;77;21091;-88
2022/02/28 03:47:28;;;;;;;43.33;32.20;;;27.00;72.50;;;;;;1823612;77;21968;-88
2022/02/28 03:49:59;;;;;;;41.30;30.32;;;27.10;71.70;;;;;;1814573;77;21205;-87
2022/02/28 03:52:42;;;;;;;35.98;28.50;;;27.20;72.20;;;;;;1826893;77;21151;-87
2022/02/28 03:55:19;;;;;;;38.38;28.17;;;27.30;71.90;;;;;;1819957;77;21087;-87
2022/02/28 03:57:55;;;;;;;32.90;27.20;;;27.40;72.00;;;;;;1811919;78;21076;-89
2022/02/28 04:00:38;;;;;;;33.73;28.05;;;27.60;71.30;;;;;;1829807;77;21151;-88
2022/02/28 04:03:08;;;;;;;32.03;25.52;;;27.70;71.10;;;;;;1820134;78;21218;-86
2022/02/28 04:05:44;;;;;;;34.00;26.97;;;27.90;71.10;;;;;;1815201;77;21091;-86
2022/02/28 04:08:15;;;;;;;35.33;26.17;;;28.10;68.90;;;;;;1809078;77;21182;-85
2022/02/28 04:10:45;;;;;;;27.90;24.18;;;28.30;68.70;;;;;;1813408;77;21287;-86
2022/02/28 04:13:16;;;;;;;30.50;24.47;;;28.40;68.30;;;;;;1821221;78;21155;-89
2022/02/28 04:15:47;;;;;;;27.15;22.02;;;28.50;67.70;;;;;;1819613;77;21179;-84
2022/02/28 04:18:19;;;;;;;32.53;23.32;;;28.60;66.30;;;;;;1812058;77;21385;-88
2022/02/28 04:20:50;;;;;;;32.88;25.35;;;28.70;67.70;;;;;;1824554;77;21186;-87
2022/02/28 04:23:22;;;;;;;31.17;23.90;;;28.70;67.70;;;;;;1817063;77;21204;-87
2022/02/28 04:25:53;;;;;;;34.27;24.18;;;28.80;67.50;;;;;;1813672;77;21265;-88
2022/02/28 04:28:23;;;;;;;30.57;24.12;;;29.00;67.20;;;;;;1819366;77;21138;-89
2022/02/28 04:30:54;;;;;;;29.23;23.45;;;29.00;67.10;;;;;;1817871;77;21386;-89
2022/02/28 04:33:25;;;;;;;27.60;23.50;;;29.10;66.20;;;;;;1821474;77;21205;-87
2022/02/28 04:35:56;;;;;;;27.75;22.93;;;29.20;66.90;;;;;;1809719;78;21143;-87
2022/02/28 04:38:26;;;;;;;31.30;23.12;;;29.30;66.60;;;;;;1814032;78;21111;-83
2022/02/28 04:40:57;;;;;;;29.63;23.45;;;29.30;65.90;;;;;;1807279;77;21147;-83
2022/02/28 04:43:28;;;;;;;26.90;21.20;;;29.30;65.00;;;;;;1807779;79;21135;-83
2022/02/28 04:45:58;;;;;;;27.70;21.75;;;29.40;64.60;;;;;;1736595;81;21234;-84
2022/02/28 04:48:29;;;;;;;26.80;20.72;;;29.40;64.50;;;;;;1814598;77;21113;-82
2022/02/28 04:50:59;;;;;;;31.33;21.33;;;29.40;65.00;;;;;;1817444;77;21062;-86
2022/02/28 04:53:30;;;;;;;26.27;20.90;;;29.50;65.10;;;;;;1814268;78;21582;-85
2022/02/28 04:56:01;;;;;;;25.43;19.82;;;29.60;64.00;;;;;;1812215;77;21193;-87
2022/02/28 04:58:32;;;;;;;28.90;21.97;;;29.60;63.80;;;;;;1818576;78;21162;-85
2022/02/28 05:01:03;;;;;;;24.35;20.90;;;29.70;64.80;;;;;;1813319;78;21249;-85
2022/02/28 05:03:34;;;;;;;24.47;20.35;;;29.80;63.80;;;;;;1815549;78;21703;-83
2022/02/28 05:06:05;;;;;;;23.60;19.30;;;29.80;62.30;;;;;;1808846;79;21195;-85
2022/02/28 05:08:36;;;;;;;21.45;19.05;;;29.90;62.50;;;;;;1813391;77;21225;-87
2022/02/28 05:11:07;;;;;;;22.95;19.48;;;29.90;62.50;;;;;;1819113;77;21135;-87
2022/02/28 05:16:12;;;;;;;24.35;19.87;;;30.10;60.50;;;;;;1809197;79;21198;-89
2022/02/28 05:18:44;;;;;;;22.58;18.45;;;30.10;59.20;;;;;;1823364;77;21297;-88
2022/02/28 05:21:15;;;;;;;21.68;17.82;;;30.20;59.00;;;;;;1827581;77;21194;-88
2022/02/28 05:23:45;;;;;;;23.70;18.87;;;30.20;59.30;;;;;;1820183;77;21111;-89
2022/02/28 05:26:18;;;;;;;22.67;17.30;;;30.30;59.70;;;;;;1812063;78;21198;-88
2022/02/28 05:28:48;;;;;;;24.40;20.00;;;30.30;59.70;;;;;;1823121;77;21128;-89
2022/02/28 05:31:19;;;;;;;25.68;19.07;;;30.40;57.70;;;;;;1817388;77;21083;-87
2022/02/28 05:33:50;;;;;;;20.62;17.98;;;30.40;57.80;;;;;;1807809;77;21132;-87
2022/02/28 05:36:21;;;;;;;26.87;21.30;;;30.50;59.00;;;;;;1812832;78;21273;-89
2022/02/28 05:38:51;;;;;;;20.05;17.92;;;30.50;59.70;;;;;;1818892;77;21139;-89
2022/02/28 05:41:22;;;;;;;20.77;17.23;;;30.50;59.50;;;;;;1816578;77;21611;-89
2022/02/28 05:43:53;;;;;;;22.05;19.35;;;30.60;59.00;;;;;;1815346;77;21165;-88
2022/02/28 05:46:24;;;;;;;20.45;17.12;;;30.60;58.80;;;;;;1813745;78;21135;-87
2022/02/28 05:48:56;;;;;;;18.37;16.35;;;30.50;58.20;;;;;;1815011;77;21284;-88
2022/02/28 05:51:27;;;;;;;22.77;16.97;;;30.50;56.70;;;;;;1811380;77;21135;-89
2022/02/28 05:53:57;;;;;;;30.15;22.48;;;30.50;56.80;;;;;;1813811;77;21267;-87
2022/02/28 05:56:29;;;;;;;22.35;17.77;;;30.50;58.30;;;;;;1816590;77;21191;-89
2022/02/28 05:59:00;;;;;;;20.65;16.52;;;30.60;58.50;;;;;;1822315;77;21163;-68
2022/02/28 06:01:32;;;;;;;17.80;15.90;;;30.70;57.40;;;;;;1818123;78;21080;-69
2022/02/28 06:04:02;;;;;;;19.25;16.65;;;30.70;57.60;;;;;;1823731;77;21084;-69
2022/02/28 06:06:33;;;;;;;17.55;15.65;;;30.80;56.70;;;;;;1823307;77;21178;-69
2022/02/28 06:09:04;;;;;;;19.92;16.65;;;30.80;56.80;;;;;;1830216;77;21174;-68
2022/02/28 06:11:36;;;;;;;19.07;16.32;;;30.90;55.50;;;;;;1823710;77;21590;-68
2022/02/28 06:14:07;;;;;;;18.70;15.85;;;30.90;55.60;;;;;;1821025;77;21226;-70
2022/02/28 06:16:39;;;;;;;17.85;15.95;;;30.90;55.50;;;;;;1815491;78;21159;-69
2022/02/28 06:19:10;;;;;;;20.35;16.30;;;31.00;55.80;;;;;;1819589;77;21112;-70
2022/02/28 06:21:41;;;;;;;21.30;16.97;;;31.00;55.80;;;;;;1820158;77;21614;-69
2022/02/28 06:24:11;;;;;;;21.52;16.95;;;31.00;55.30;;;;;;1825686;77;21147;-70
2022/02/28 06:26:42;;;;;;;21.50;16.93;;;31.00;56.40;;;;;;1825657;78;21248;-69
2022/02/28 06:29:13;;;;;;;19.70;16.57;;;31.00;57.20;;;;;;1820728;77;21521;-70
2022/02/28 06:31:45;;;;;;;21.40;17.32;;;31.10;55.80;;;;;;1822913;77;21099;-70
2022/02/28 06:34:16;;;;;;;17.70;15.80;;;31.10;55.90;;;;;;1817400;79;21527;-69
2022/02/28 06:36:47;;;;;;;21.27;17.65;;;31.10;55.60;;;;;;1822197;77;21141;-70
2022/02/28 06:39:18;;;;;;;23.92;17.00;;;31.10;55.80;;;;;;1826765;77;21290;-69
2022/02/28 06:41:48;;;;;;;17.95;15.88;;;31.10;55.20;;;;;;1823824;78;21111;-69
2022/02/28 06:44:19;;;;;;;20.48;17.48;;;31.20;55.20;;;;;;1816139;78;21540;-69
2022/02/28 06:46:52;;;;;;;19.23;15.65;;;31.20;55.10;;;;;;1815941;78;21212;-69
2022/02/28 06:49:22;;;;;;;22.13;16.48;;;31.20;55.00;;;;;;1826682;77;21690;-69
2022/02/28 06:51:53;;;;;;;17.55;14.58;;;31.20;54.80;;;;;;1828087;77;21163;-68
2022/02/28 06:54:24;;;;;;;20.90;15.93;;;31.20;54.90;;;;;;1826033;77;21162;-69
2022/02/28 06:56:55;;;;;;;22.30;15.83;;;31.30;54.30;;;;;;1824366;78;21127;-68
2022/02/28 06:59:26;;;;;;;17.35;15.08;;;31.30;54.00;;;;;;1825754;77;21154;-68
2022/02/28 07:01:57;;;;;;;16.50;14.75;;;31.40;54.30;;;;;;1830402;77;21215;-69
2022/02/28 07:04:28;;;;;;;19.45;16.02;;;31.40;54.20;;;;;;1825995;77;21134;-68
2022/02/28 07:06:59;;;;;;;22.13;15.93;;;31.40;54.30;;;;;;1827420;77;21095;-68
2022/02/28 07:09:30;;;;;;;19.32;16.35;;;31.40;54.00;;;;;;1824033;77;21190;-69
2022/02/28 07:12:01;;;;;;;18.25;15.80;;;31.40;53.30;;;;;;1820994;78;21125;-69
2022/02/28 07:14:31;;;;;;;19.90;15.55;;;31.40;53.90;;;;;;1826970;77;21696;-69
2022/02/28 07:17:02;;;;;;;21.75;16.23;;;31.40;53.60;;;;;;1824425;78;21241;-69
2022/02/28 07:19:33;;;;;;;18.40;16.07;;;31.30;54.40;;;;;;1825161;77;21217;-69
2022/02/28 07:22:04;;;;;;;21.55;16.35;;;31.30;53.80;;;;;;1825029;77;21541;-69
2022/02/28 07:24:35;;;;;;;18.27;14.58;;;31.30;54.70;;;;;;1822858;78;21178;-69
2022/02/28 07:27:05;;;;;;;21.68;16.70;;;31.30;53.60;;;;;;1824187;78;21185;-69
2022/02/28 07:29:36;;;;;;;17.10;15.10;;;31.30;53.90;;;;;;1829120;77;21599;-69
2022/02/28 07:32:07;;;;;;;19.55;15.40;;;31.30;54.00;;;;;;1820087;77;21093;-69
2022/02/28 07:34:38;;;;;;;17.62;14.70;;;31.30;54.60;;;;;;1827818;77;21107;-69
2022/02/28 07:37:09;;;;;;;23.27;17.05;;;31.30;53.80;;;;;;1830099;77;21139;-69
2022/02/28 07:39:40;;;;;;;17.00;15.20;;;31.30;54.60;;;;;;1828468;77;21644;-69
2022/02/28 07:42:11;;;;;;;16.80;14.73;;;31.30;54.70;;;;;;1824254;78;21581;-69
2022/02/28 07:44:41;;;;;;;16.07;14.45;;;31.10;53.70;;;;;;1822879;77;21212;-69
2022/02/28 07:47:12;;;;;;;16.90;14.87;;;31.30;54.40;;;;;;1822259;78;21140;-69
2022/02/28 07:49:43;;;;;;;16.55;14.75;;;31.20;54.10;;;;;;1822128;77;21579;-69
2022/02/28 07:52:14;;;;;;;20.30;17.80;;;31.10;54.20;;;;;;1823173;77;21167;-70
2022/02/28 07:54:44;;;;;;;18.00;15.15;;;31.10;54.50;;;;;;1826079;77;21163;-69
2022/02/28 07:57:15;;;;;;;17.32;14.65;;;31.00;55.10;;;;;;1825251;78;21206;-69
2022/02/28 07:59:46;;;;;;;18.00;14.65;;;31.00;54.60;;;;;;1812498;77;21147;-69
2022/02/28 08:02:16;;;;;;;16.65;14.33;;;31.00;55.40;;;;;;1822825;77;21221;-70
2022/02/28 08:04:47;;;;;;;20.27;15.30;;;31.00;55.00;;;;;;1817434;77;21131;-69
2022/02/28 08:07:19;;;;;;;20.82;14.83;;;30.90;54.80;;;;;;1829354;77;21261;-69
2022/02/28 08:09:49;;;;;;;21.25;15.80;;;31.00;54.30;;;;;;1817379;77;21645;-69
2022/02/28 08:12:20;;;;;;;16.70;14.90;;;31.00;54.60;;;;;;1830743;77;21662;-68
2022/02/28 08:14:51;;;;;;;19.10;15.78;;;31.00;54.80;;;;;;1810850;78;21092;-68
2022/02/28 08:17:22;;;;;;;19.37;15.03;;;31.00;54.50;;;;;;1828253;78;21461;-68
2022/02/28 08:19:54;;;;;;;17.37;14.30;;;31.00;54.80;;;;;;1814042;77;21672;-68
2022/02/28 08:22:25;;;;;;;16.65;14.28;;;31.10;54.80;;;;;;1824077;77;21207;-70
2022/02/28 08:24:58;;;;;;;18.65;14.68;;;31.10;54.90;;;;;;1812168;77;21391;-68
2022/02/28 08:27:28;;;;;;;22.62;17.62;;;31.10;54.50;;;;;;1828232;78;21530;-68
2022/02/28 08:29:59;;;;;;;18.05;14.28;;;31.00;54.60;;;;;;1814085;77;21654;-68
2022/02/28 08:32:30;;;;;;;19.00;14.70;;;31.00;55.30;;;;;;1826152;77;21115;-69
2022/02/28 08:35:01;;;;;;;17.30;14.40;;;31.00;55.40;;;;;;1808583;77;21220;-68
2022/02/28 08:37:32;;;;;;;17.55;14.55;;;31.00;55.50;;;;;;1821040;77;21198;-68
2022/02/28 08:40:03;;;;;;;19.75;14.68;;;31.00;55.20;;;;;;1820757;77;21535;-69
2022/02/28 08:42:35;;;;;;;20.12;14.40;;;30.90;55.30;;;;;;1816643;78;21233;-68
2022/02/28 08:45:06;;;;;;;17.35;14.53;;;30.90;55.10;;;;;;1818068;77;21126;-68
2022/02/28 08:47:37;;;;;;;17.40;15.03;;;30.90;55.60;;;;;;1814021;78;21161;-68
2022/02/28 08:50:09;;;;;;;17.30;14.18;;;30.90;55.60;;;;;;1813386;77;21178;-67
2022/02/28 08:52:40;;;;;;;19.00;15.28;;;30.90;55.60;;;;;;1816163;77;21595;-68
2022/02/28 08:55:11;;;;;;;17.67;14.25;;;30.90;55.80;;;;;;1810499;79;21728;-68
2022/02/28 08:57:42;;;;;;;19.73;14.95;;;30.90;55.90;;;;;;1817730;77;21394;-68
2022/02/28 09:00:13;;;;;;;15.75;14.10;;;31.00;55.80;;;;;;1812471;78;21615;-68
2022/02/28 09:02:44;;;;;;;16.55;14.70;;;30.90;55.90;;;;;;1818077;77;21163;-68
2022/02/28 09:05:16;;;;;;;16.80;15.00;;;31.00;55.80;;;;;;1822511;78;21720;-67
2022/02/28 09:07:46;;;;;;;17.17;14.58;;;30.90;55.90;;;;;;1825841;77;21217;-68
2022/02/28 09:10:18;;;;;;;15.95;13.60;;;31.00;55.60;;;;;;1816011;77;21164;-69
2022/02/28 09:12:49;;;;;;;19.67;15.93;;;31.00;55.60;;;;;;1823537;78;21471;-68
2022/02/28 09:15:20;;;;;;;25.17;15.43;;;31.10;55.20;;;;;;1817468;77;21241;-68
2022/02/28 09:17:51;;;;;;;22.25;16.40;;;31.10;55.40;;;;;;1823576;77;21142;-69
2022/02/28 09:20:22;;;;;;;19.27;15.25;;;31.10;55.80;;;;;;1824371;77;21162;-69
2022/02/28 09:22:52;;;;;;;21.35;14.73;;;31.10;55.90;;;;;;1812954;78;21099;-69
2022/02/28 09:25:24;;;;;;;18.27;16.30;;;31.10;56.00;;;;;;1807398;78;21154;-69
2022/02/28 09:27:54;;;;;;;19.73;16.52;;;31.00;56.20;;;;;;1821904;77;21658;-69
2022/02/28 09:30:26;;;;;;;17.50;14.90;;;31.00;56.20;;;;;;1817637;77;21186;-69
2022/02/28 09:32:57;;;;;;;19.55;15.53;;;31.00;56.00;;;;;;1818367;77;21203;-69
2022/02/28 09:35:28;;;;;;;21.65;18.10;;;31.00;56.40;;;;;;1820769;77;21097;-83
2022/02/28 09:37:59;;;;;;;17.50;15.65;;;31.00;56.90;;;;;;1816019;79;21156;-83
2022/02/28 09:40:32;;;;;;;21.25;15.58;;;30.90;56.50;;;;;;1816285;79;21249;-83
2022/02/28 09:43:05;;;;;;;21.65;15.15;;;30.90;57.00;;;;;;1815480;79;21131;-83
2022/02/28 09:45:37;;;;;;;18.40;14.90;;;30.80;56.90;;;;;;1819488;77;21608;-82
2022/02/28 09:48:09;;;;;;;18.48;16.42;;;30.80;57.10;;;;;;1788132;80;21143;-83
2022/02/28 09:50:40;;;;;;;20.45;15.65;;;30.70;57.40;;;;;;1812893;77;21638;-83
2022/02/28 09:53:12;;;;;;;18.32;15.28;;;30.60;57.50;;;;;;1814214;77;21140;-84
2022/02/28 09:55:42;;;;;;;16.07;14.38;;;30.60;57.90;;;;;;1816744;79;21135;-85
2022/02/28 09:58:13;;;;;;;16.30;14.23;;;30.60;57.60;;;;;;1820752;77;21189;-86
2022/02/28 10:00:46;;;;;;;16.65;14.70;;;30.50;57.60;;;;;;1827843;77;21167;-84
2022/02/28 10:03:16;;;;;;;18.35;14.78;;;30.50;57.90;;;;;;1814801;79;21140;-84
2022/02/28 10:05:47;;;;;;;18.00;14.83;;;30.40;57.60;;;;;;1820637;79;21166;-83
2022/02/28 10:08:19;;;;;;;23.75;15.23;;;30.40;58.00;;;;;;1812146;79;21705;-83
2022/02/28 10:10:50;;;;;;;20.08;13.85;;;30.30;58.10;;;;;;1819849;79;21802;-84
2022/02/28 10:13:23;;;;;;;18.00;14.87;;;30.30;58.40;;;;;;1820462;77;21085;-85
2022/02/28 10:15:59;;;;;;;17.57;14.55;;;30.20;58.60;;;;;;1819198;78;21501;-84
2022/02/28 10:18:32;;;;;;;16.67;14.05;;;30.20;59.40;;;;;;1820262;79;21142;-84
2022/02/28 10:21:04;;;;;;;17.35;14.73;;;30.10;58.60;;;;;;1812165;77;21791;-83
2022/02/28 10:23:35;;;;;;;20.05;14.45;;;30.10;58.80;;;;;;1851343;77;21107;-84
2022/02/28 10:26:08;;;;;;;18.40;14.58;;;30.10;59.30;;;;;;1834645;77;21216;-83
2022/02/28 10:28:40;;;;;;;17.55;14.90;;;30.00;58.90;;;;;;1818568;77;21127;-82
2022/02/28 10:31:34;;;;;;;19.92;15.80;;;29.90;59.00;;;;;;1822297;77;21178;-84
2022/02/28 10:34:07;;;;;;;21.55;16.17;;;29.90;59.10;;;;;;1816511;77;21556;-84
2022/02/28 10:36:40;;;;;;;17.37;15.48;;;29.90;59.00;;;;;;1816393;79;21104;-83
2022/02/28 10:39:11;;;;;;;19.67;16.02;;;29.80;59.30;;;;;;1817215;77;21159;-83
2022/02/28 10:41:45;;;;;;;19.92;15.50;;;29.80;59.20;;;;;;1843910;77;21535;-83
2022/02/28 10:44:16;;;;;;;18.85;15.40;;;29.80;59.40;;;;;;1844111;77;21201;-84
2022/02/28 10:46:49;;;;;;;17.85;15.90;;;29.80;59.40;;;;;;1828146;77;21218;-83
2022/02/28 10:49:22;;;;;;;21.70;16.17;;;29.80;59.50;;;;;;1810696;79;21135;-83
2022/02/28 10:51:55;;;;;;;20.77;14.85;;;29.70;59.60;;;;;;1819609;77;21141;-82
2022/02/28 10:54:27;;;;;;;20.00;16.45;;;29.70;59.60;;;;;;1818971;78;21160;-82
2022/02/28 10:57:00;;;;;;;22.75;15.48;;;29.70;59.80;;;;;;1820541;77;21168;-83
2022/02/28 10:59:33;;;;;;;19.32;15.03;;;29.60;59.90;;;;;;1802620;77;21464;-82
2022/02/28 11:02:04;;;;;;;21.10;15.48;;;29.60;59.90;;;;;;1820388;78;21634;-82
2022/02/28 11:04:39;;;;;;;20.00;15.45;;;29.60;60.00;;;;;;1821124;77;21157;-82
2022/02/28 11:07:14;;;;;;;18.27;15.50;;;29.50;59.90;;;;;;1815791;77;21120;-83
2022/02/28 11:09:47;;;;;;;20.68;16.07;;;29.50;59.80;;;;;;1820171;77;21136;-84
2022/02/28 11:12:20;;;;;;;24.82;20.65;;;29.50;60.00;;;;;;1794205;80;21256;-83
2022/02/28 11:14:52;;;;;;;23.10;18.20;;;29.50;60.40;;;;;;1813744;77;21731;-84
2022/02/28 11:17:27;;;;;;;21.45;17.60;;;29.40;60.00;;;;;;1817458;77;21065;-83
2022/02/28 11:20:00;;;;;;;24.85;18.82;;;29.40;60.20;;;;;;1829086;77;21637;-82
2022/02/28 11:22:32;;;;;;;22.73;16.93;;;29.40;60.40;;;;;;1825606;77;21104;-84
2022/02/28 11:25:05;;;;;;;23.45;16.50;;;29.40;60.50;;;;;;1821281;77;21151;-83
2022/02/28 11:27:37;;;;;;;20.32;16.35;;;29.30;60.60;;;;;;1812844;77;21212;-83
2022/02/28 11:30:10;;;;;;;21.45;16.87;;;29.30;60.70;;;;;;1825472;78;21130;-81
2022/02/28 11:32:45;;;;;;;21.02;16.40;;;29.20;60.80;;;;;;1828489;77;21056;-81
2022/02/28 11:35:18;;;;;;;22.17;17.40;;;29.20;61.00;;;;;;1856718;77;21119;-81
2022/02/28 11:37:49;;;;;;;21.02;16.48;;;29.20;61.30;;;;;;1824784;77;21292;-82
2022/02/28 11:40:21;;;;;;;22.70;17.90;;;29.20;61.40;;;;;;1818499;77;21163;-81
2022/02/28 11:42:55;;;;;;;20.17;17.05;;;29.10;61.40;;;;;;1823654;77;21221;-82
2022/02/28 11:45:25;;;;;;;19.98;16.25;;;29.10;61.60;;;;;;1821220;77;21124;-81
2022/02/28 11:48:00;;;;;;;21.25;17.20;;;29.10;61.70;;;;;;1814719;77;21198;-82
2022/02/28 11:50:33;;;;;;;20.08;16.52;;;29.00;61.90;;;;;;1816658;77;21140;-82
2022/02/28 11:53:06;;;;;;;19.82;16.30;;;29.00;61.90;;;;;;1807024;77;21268;-82
2022/02/28 11:55:37;;;;;;;20.72;16.40;;;29.00;61.90;;;;;;1832983;77;21724;-82
2022/02/28 11:58:13;;;;;;;22.77;16.20;;;29.00;61.90;;;;;;1812914;77;21638;-82
2022/02/28 12:00:45;;;;;;;27.02;17.42;;;29.00;62.00;;;;;;1822076;77;21132;-81
2022/02/28 12:03:19;;;;;;;23.73;19.80;;;29.00;62.30;;;;;;1813496;77;21573;-81
2022/02/28 12:05:49;;;;;;;26.75;20.43;;;28.90;62.50;;;;;;1813564;79;21159;-81
2022/02/28 12:08:23;;;;;;;23.83;19.42;;;28.90;62.50;;;;;;1810775;77;21574;-82
2022/02/28 12:10:55;;;;;;;27.77;21.48;;;28.90;62.40;;;;;;1802490;79;21200;-82
2022/02/28 12:13:29;;;;;;;30.43;18.95;;;28.90;62.70;;;;;;1812901;77;21521;-82
2022/02/28 12:16:02;;;;;;;25.12;18.02;;;28.90;62.90;;;;;;1839390;77;21222;-81
2022/02/28 12:18:33;;;;;;;26.50;20.05;;;28.90;63.40;;;;;;1811732;77;21612;-82
2022/02/28 12:21:08;;;;;;;26.73;18.87;;;28.80;63.20;;;;;;1815599;77;21499;-81
2022/02/28 12:23:41;;;;;;;24.90;19.90;;;28.80;63.40;;;;;;1824297;77;21147;-81
2022/02/28 12:26:12;;;;;;;25.80;20.70;;;28.80;63.80;;;;;;1818979;77;21083;-81
2022/02/28 12:28:45;;;;;;;29.20;23.27;;;28.80;63.80;;;;;;1817592;78;21232;-81
2022/02/28 12:31:18;;;;;;;26.52;20.82;;;28.70;63.80;;;;;;1819798;77;21812;-82
2022/02/28 12:33:49;;;;;;;28.95;20.45;;;28.70;63.90;;;;;;1822396;77;21152;-83
2022/02/28 12:36:20;;;;;;;25.00;19.77;;;28.70;64.30;;;;;;1816538;79;21226;-81
2022/02/28 12:38:52;;;;;;;26.35;19.55;;;28.70;65.10;;;;;;1821432;77;21127;-83
2022/02/28 12:41:25;;;;;;;27.13;20.70;;;28.70;65.60;;;;;;1815364;77;21194;-82
2022/02/28 12:43:58;;;;;;;27.70;22.50;;;28.60;65.50;;;;;;1806862;77;21190;-82
2022/02/28 12:46:32;;;;;;;34.58;25.08;;;28.50;65.30;;;;;;1823118;77;21124;-82
2022/02/28 12:49:05;;;;;;;35.00;26.97;;;28.50;65.40;;;;;;1823564;77;21138;-82
2022/02/28 12:51:37;;;;;;;28.55;21.97;;;28.50;65.70;;;;;;1831457;77;21125;-81